Time;durP1;ratioP1;P1;durP2;ratioP2;P2;SDS_P1;SDS_P2;PMS_P1;PMS_P2;Temp;Humidity;BMP_temperature;BMP_pressure;BME280_temperature;BME280_humidity;BME280_pressure;Samples;Min_cycle;Max_cycle;Signal;HPM_P1;HPM_P2
2022/12/03 00:01:42;;;;;;;;;;;;;;;6.61;53.96;101081.16;4971253;28;6803;-72
2022/12/03 00:04:07;;;;;;;;;;;;;;;6.63;54.17;101083.84;4969686;28;7185;-72
2022/12/03 00:06:33;;;;;;;;;;;;;;;6.62;53.82;101088.06;4968220;28;6816;-71
2022/12/03 00:08:58;;;;;;;;;;;;;;;6.62;53.83;101084.63;4972808;28;7166;-72
2022/12/03 00:11:24;;;;;;;;;;;;;;;6.60;54.24;101081.94;4970419;28;6855;-71
2022/12/03 00:13:50;;;;;;;;;;;;;;;6.60;54.25;101084.50;4975459;28;6953;-71
2022/12/03 00:16:15;;;;;;;;;;;;;;;6.59;54.27;101085.28;4975539;28;6804;-72
2022/12/03 00:18:41;;;;;;;;;;;;;;;6.60;53.61;101083.63;4968834;28;8074;-72
2022/12/03 00:21:07;;;;;;;;;;;;;;;6.61;54.45;101090.50;4965354;28;6995;-72
2022/12/03 00:23:32;;;;;;;;;;;;;;;6.60;54.25;101081.94;4974631;28;6768;-72
2022/12/03 00:25:58;;;;;;;;;;;;;;;6.57;54.41;101073.19;4972091;28;6811;-71
2022/12/03 00:28:23;;;;;;;;;;;;;;;6.57;53.86;101073.19;4973239;28;6792;-72
2022/12/03 00:30:52;;;;;;;;;;;;;;;6.56;54.34;101066.31;4972386;28;6929;-72
2022/12/03 00:33:19;;;;;;;;;;;;;;;6.55;54.76;101069.66;4971970;28;6851;-71
2022/12/03 00:35:45;;;;;;;;;;;;;;;6.55;54.31;101069.66;4972753;28;6800;-72
2022/12/03 00:38:10;;;;;;;;;;;;;;;6.55;54.06;101074.75;4969822;28;6768;-72
2022/12/03 00:40:36;;;;;;;;;;;;;;;6.54;53.86;101063.69;4989982;28;8658;-72
2022/12/03 00:43:02;;;;;;;;;;;;;;;6.56;53.96;101063.78;4972989;28;6763;-72
2022/12/03 00:45:28;;;;;;;;;;;;;;;6.55;53.99;101067.09;4969271;28;6923;-72
2022/12/03 00:47:53;;;;;;;;;;;;;;;6.55;54.01;101067.09;4970186;28;6772;-72
2022/12/03 00:50:19;;;;;;;;;;;;;;;6.55;54.07;101064.56;4975718;28;6788;-72
2022/12/03 00:52:45;;;;;;;;;;;;;;;6.56;54.19;101067.22;4971704;28;6813;-72
2022/12/03 00:55:11;;;;;;;;;;;;;;;6.56;54.13;101061.22;4979692;28;6772;-72
2022/12/03 00:57:36;;;;;;;;;;;;;;;6.56;54.33;101063.78;4969157;28;6856;-72
2022/12/03 01:00:06;;;;;;;;;;;;;;;6.56;54.20;101066.31;4970262;28;9059;-72
2022/12/03 01:02:31;;;;;;;;;;;;;;;6.53;53.75;101067.88;4973160;28;6883;-72
2022/12/03 01:04:57;;;;;;;;;;;;;;;6.54;53.88;101063.69;4971820;28;6966;-72
2022/12/03 01:07:23;;;;;;;;;;;;;;;6.53;54.14;101064.47;4970452;28;6764;-72
2022/12/03 01:09:49;;;;;;;;;;;;;;;6.52;54.39;101073.75;4974103;28;6784;-72
2022/12/03 01:12:14;;;;;;;;;;;;;;;6.50;54.17;101066.75;4968741;28;7306;-72
2022/12/03 01:14:40;;;;;;;;;;;;;;;6.50;53.89;101071.84;4976102;28;6768;-72
2022/12/03 01:17:06;;;;;;;;;;;;;;;6.50;54.20;101067.66;4971077;28;9953;-72
2022/12/03 01:19:34;;;;;;;;;;;;;;;6.50;54.28;101061.66;4970394;28;6908;-72
2022/12/03 01:22:00;;;;;;;;;;;;;;;6.49;53.96;101068.44;4975374;28;6808;-72
2022/12/03 01:24:26;;;;;;;;;;;;;;;6.51;54.31;101069.44;4967323;28;6843;-72
2022/12/03 01:26:51;;;;;;;;;;;;;;;6.52;54.33;101073.75;4973840;28;6796;-72
2022/12/03 01:29:17;;;;;;;;;;;;;;;6.53;54.27;101065.31;4969403;28;6800;-72
2022/12/03 01:34:27;;;;;;;;;;;;;;;6.55;54.51;101077.28;4973274;28;6812;-72
2022/12/03 01:36:54;;;;;;;;;;;;;;;6.58;54.46;101072.44;4965797;28;6788;-72
2022/12/03 01:39:19;;;;;;;;;;;;;;;6.58;54.52;101077.53;4969812;28;7861;-72
2022/12/03 01:41:48;;;;;;;;;;;;;;;6.58;54.06;101075.00;4967534;28;8576;-72
2022/12/03 01:44:22;;;;;;;;;;;;;;;6.57;54.02;101071.53;4978750;28;6863;-72
2022/12/03 01:46:51;;;;;;;;;;;;;;;6.57;54.02;101078.28;4969166;28;6887;-72
2022/12/03 01:49:26;;;;;;;;;;;;;;;6.57;53.99;101079.19;4972673;28;7885;-72
2022/12/03 01:51:53;;;;;;;;;;;;;;;6.56;53.90;101074.88;4973189;28;7193;-72
2022/12/03 01:54:28;;;;;;;;;;;;;;;6.58;53.53;101069.91;4975689;28;6859;-72
2022/12/03 01:56:54;;;;;;;;;;;;;;;6.58;53.72;101069.91;4974173;28;6815;-72
2022/12/03 01:59:33;;;;;;;;;;;;;;;6.59;54.23;101072.53;4976308;28;6816;-72
2022/12/03 02:02:07;;;;;;;;;;;;;;;6.59;53.77;101066.56;4977368;28;6808;-72
2022/12/03 02:04:33;;;;;;;;;;;;;;;6.59;53.66;101066.56;4976592;28;6832;-72
2022/12/03 02:07:29;;;;;;;;;;;;;;;6.58;54.09;101059.72;4978720;28;6784;-72
2022/12/03 02:09:59;;;;;;;;;;;;;;;6.59;54.14;101061.47;4972729;28;8890;-72
2022/12/03 02:12:38;;;;;;;;;;;;;;;6.57;53.49;101063.91;4977318;28;6816;-72
2022/12/03 02:15:07;;;;;;;;;;;;;;;6.57;53.56;101055.34;4973656;28;6946;-72
2022/12/03 02:17:34;;;;;;;;;;;;;;;6.57;53.55;101052.81;4997368;28;6827;-72
2022/12/03 02:20:01;;;;;;;;;;;;;;;6.56;54.20;101057.03;4978994;28;6835;-71
2022/12/03 02:22:44;;;;;;;;;;;;;;;6.55;53.55;101056.91;4974156;28;6796;-72
2022/12/03 02:25:23;;;;;;;;;;;;;;;6.53;53.32;101059.38;4976679;28;6792;-72
2022/12/03 02:27:52;;;;;;;;;;;;;;;6.49;53.84;101049.69;4977323;28;8247;-72
2022/12/03 02:30:22;;;;;;;;;;;;;;;6.47;53.71;101051.25;4963757;28;8518;-72
2022/12/03 02:32:49;;;;;;;;;;;;;;;6.44;54.11;101045.94;4973103;28;6855;-72
2022/12/03 02:35:22;;;;;;;;;;;;;;;6.41;53.63;101051.69;4975188;28;6780;-72
2022/12/03 02:37:59;;;;;;;;;;;;;;;6.38;53.53;101048.91;4979470;28;6997;-72
2022/12/03 02:40:30;;;;;;;;;;;;;;;6.35;53.87;101041.03;4965016;28;8536;-72
2022/12/03 02:43:00;;;;;;;;;;;;;;;6.35;54.04;101038.47;4975052;28;8089;-73
2022/12/03 02:45:39;;;;;;;;;;;;;;;6.35;53.78;101038.47;4979604;28;7018;-72
2022/12/03 02:48:11;;;;;;;;;;;;;;;6.36;54.00;101042.78;4979860;28;6824;-72
2022/12/03 02:50:42;;;;;;;;;;;;;;;6.36;53.94;101038.59;4973457;28;7129;-72
2022/12/03 02:53:16;;;;;;;;;;;;;;;6.36;53.73;101035.16;4978058;28;6792;-72
2022/12/03 02:55:41;;;;;;;;;;;;;;;6.37;54.19;101039.47;4979432;28;6875;-72
2022/12/03 02:58:09;;;;;;;;;;;;;;;6.39;54.07;101032.88;4982309;28;7244;-72
2022/12/03 03:00:37;;;;;;;;;;;;;;;6.41;54.13;101035.50;4977932;28;7000;-72
2022/12/03 03:03:06;;;;;;;;;;;;;;;6.42;54.17;101037.28;4980452;28;6864;-74
2022/12/03 03:05:37;;;;;;;;;;;;;;;6.41;54.08;101031.31;4968734;28;6998;-74
2022/12/03 03:08:04;;;;;;;;;;;;;;;6.43;54.01;101034.84;4971978;28;6859;-74
2022/12/03 03:10:33;;;;;;;;;;;;;;;6.42;54.06;101030.53;4976388;28;6848;-74
2022/12/03 03:13:05;;;;;;;;;;;;;;;6.44;54.21;101031.53;4977777;28;6811;-73
2022/12/03 03:15:31;;;;;;;;;;;;;;;6.45;54.34;101028.22;4973497;28;6955;-74
2022/12/03 03:17:56;;;;;;;;;;;;;;;6.46;54.28;101032.53;4966041;28;8440;-73
2022/12/03 03:20:22;;;;;;;;;;;;;;;6.47;54.56;101026.69;4961019;28;6796;-73
2022/12/03 03:22:47;;;;;;;;;;;;;;;6.49;54.44;101030.22;4973394;28;7846;-73
2022/12/03 03:25:19;;;;;;;;;;;;;;;6.52;54.38;101025.34;4970543;28;6787;-74
2022/12/03 03:27:45;;;;;;;;;;;;;;;6.53;54.22;101032.22;4978392;28;6812;-73
2022/12/03 03:30:13;;;;;;;;;;;;;;;6.55;54.09;101031.44;4970420;28;8051;-72
2022/12/03 03:32:41;;;;;;;;;;;;;;;6.55;54.05;101027.25;4979280;28;6860;-74
2022/12/03 03:35:09;;;;;;;;;;;;;;;6.56;54.12;101026.47;4973955;28;6800;-74
2022/12/03 03:37:35;;;;;;;;;;;;;;;6.56;54.49;101031.56;4986186;28;6796;-74
2022/12/03 03:40:01;;;;;;;;;;;;;;;6.54;53.95;101028.03;4977075;28;6927;-74
2022/12/03 03:42:27;;;;;;;;;;;;;;;6.51;54.06;101028.69;4970217;28;6788;-72
2022/12/03 03:44:53;;;;;;;;;;;;;;;6.49;53.73;101029.31;4979277;28;6812;-74
2022/12/03 03:47:19;;;;;;;;;;;;;;;6.44;54.15;101021.34;4973189;28;7082;-73
2022/12/03 03:49:48;;;;;;;;;;;;;;;6.40;53.89;101027.00;4976182;28;6871;-74
2022/12/03 03:52:14;;;;;;;;;;;;;;;6.35;53.98;101016.47;4964914;28;7007;-74
2022/12/03 03:54:39;;;;;;;;;;;;;;;6.32;54.04;101023.84;4971094;28;6800;-74
2022/12/03 03:57:05;;;;;;;;;;;;;;;6.29;54.46;101026.19;4968613;28;6787;-74
2022/12/03 03:59:31;;;;;;;;;;;;;;;6.25;54.22;101019.09;4974758;28;6824;-74
2022/12/03 04:01:57;;;;;;;;;;;;;;;6.23;53.96;101026.59;4979029;28;6816;-72
2022/12/03 04:04:27;;;;;;;;;;;;;;;6.23;54.47;101018.09;4979748;28;6795;-74
2022/12/03 04:06:53;;;;;;;;;;;;;;;6.23;54.69;101020.66;4983801;28;6808;-74
2022/12/03 04:09:19;;;;;;;;;;;;;;;6.24;54.75;101017.31;4978251;28;6780;-74
2022/12/03 04:14:28;;;;;;;;;;;;;;;6.30;54.85;101011.81;4973972;28;6808;-74
2022/12/03 04:16:54;;;;;;;;;;;;;;;6.32;54.66;101016.22;4971916;28;6768;-73
2022/12/03 04:19:20;;;;;;;;;;;;;;;6.35;54.88;101016.47;4973198;28;6964;-74
2022/12/03 04:24:29;;;;;;;;;;;;;;;6.40;54.39;101006.63;4977084;28;6804;-74
2022/12/03 04:29:39;;;;;;;;;;;;;;;6.44;54.90;101005.19;4973045;28;6808;-74
2022/12/03 04:37:33;;;;;;;;;;;;;;;6.47;54.85;101002.88;4971397;28;6804;-75
2022/12/03 04:39:59;;;;;;;;;;;;;;;6.48;54.67;101003.00;4979461;28;6791;-74
2022/12/03 04:42:24;;;;;;;;;;;;;;;6.49;54.95;100999.66;4976432;28;6784;-72
2022/12/03 04:44:50;;;;;;;;;;;;;;;6.52;54.65;101002.44;4973020;28;6856;-74
2022/12/03 04:47:18;;;;;;;;;;;;;;;6.53;54.61;100999.09;4971431;28;7830;-74
2022/12/03 04:49:47;;;;;;;;;;;;;;;6.56;54.92;100995.91;4966363;28;6808;-75
2022/12/03 04:52:16;;;;;;;;;;;;;;;6.58;54.38;100999.44;4976614;28;6796;-73
2022/12/03 04:54:42;;;;;;;;;;;;;;;6.60;54.62;100997.03;4972186;28;7075;-74
2022/12/03 04:57:10;;;;;;;;;;;;;;;6.60;54.83;101002.13;4974589;28;6919;-73
2022/12/03 04:59:36;;;;;;;;;;;;;;;6.61;54.21;100998.78;4976091;28;6995;-74
2022/12/03 05:02:04;;;;;;;;;;;;;;;6.61;54.24;100993.69;4967733;28;6867;-74
2022/12/03 05:04:30;;;;;;;;;;;;;;;6.62;54.51;101004.00;4972180;28;6855;-74
2022/12/03 05:06:56;;;;;;;;;;;;;;;6.64;54.42;100993.91;4967763;28;6808;-73
2022/12/03 05:09:21;;;;;;;;;;;;;;;6.64;54.12;100992.25;4973401;28;6929;-74
2022/12/03 05:11:47;;;;;;;;;;;;;;;6.65;54.43;100999.13;4973014;28;7223;-73
2022/12/03 05:14:13;;;;;;;;;;;;;;;6.66;54.38;100987.25;4974357;28;9101;-75
2022/12/03 05:16:39;;;;;;;;;;;;;;;6.66;54.96;100989.81;4970985;28;6856;-74
2022/12/03 05:19:06;;;;;;;;;;;;;;;6.66;54.66;100994.91;4971537;28;7606;-73
2022/12/03 05:21:32;;;;;;;;;;;;;;;6.68;54.81;100995.94;4955237;28;8353;-74
2022/12/03 05:23:58;;;;;;;;;;;;;;;6.67;54.56;100996.72;4977986;28;8764;-75
2022/12/03 05:26:23;;;;;;;;;;;;;;;6.67;54.67;100994.16;4980550;28;6803;-73
2022/12/03 05:28:49;;;;;;;;;;;;;;;6.66;54.48;100995.81;4969595;28;6871;-73
2022/12/03 05:31:15;;;;;;;;;;;;;;;6.67;54.89;100989.06;4974786;28;6795;-74
2022/12/03 05:33:41;;;;;;;;;;;;;;;6.67;54.76;100992.47;4975909;28;6877;-73
2022/12/03 05:36:07;;;;;;;;;;;;;;;6.67;54.74;100989.94;4952225;28;6963;-74
2022/12/03 05:38:33;;;;;;;;;;;;;;;6.69;54.68;100996.78;4970105;28;6804;-73
2022/12/03 05:40:58;;;;;;;;;;;;;;;6.69;54.55;100991.69;4990566;28;6990;-73
2022/12/03 05:43:24;;;;;;;;;;;;;;;6.70;54.70;100986.72;4975099;28;6946;-74
2022/12/03 05:45:50;;;;;;;;;;;;;;;6.72;54.76;100987.72;4978496;28;6780;-73
2022/12/03 05:48:16;;;;;;;;;;;;;;;6.77;54.29;100988.06;4974295;28;8786;-74
2022/12/03 05:50:44;;;;;;;;;;;;;;;6.81;54.47;100993.50;4967631;28;7841;-73
2022/12/03 05:53:11;;;;;;;;;;;;;;;6.86;54.21;100985.31;4969125;28;7070;-74
2022/12/03 05:55:37;;;;;;;;;;;;;;;6.89;53.88;100988.06;4968548;28;7281;-74
2022/12/03 05:58:03;;;;;;;;;;;;;;;6.90;53.97;100982.19;4968746;28;7023;-74
2022/12/03 06:00:36;;;;;;;;;;;;;;;6.91;54.20;100983.97;4974605;28;6855;-72
2022/12/03 06:03:05;;;;;;;;;;;;;;;6.92;54.00;100990.81;4974469;28;6796;-73
2022/12/03 06:05:32;;;;;;;;;;;;;;;6.92;54.65;100989.19;4977608;28;6800;-73
2022/12/03 06:07:57;;;;;;;;;;;;;;;6.93;54.50;100990.03;4986776;28;6796;-73
2022/12/03 06:10:25;;;;;;;;;;;;;;;6.93;53.85;100987.50;4970982;28;7053;-74
2022/12/03 06:12:52;;;;;;;;;;;;;;;6.93;54.55;100995.16;4977923;28;6939;-73
2022/12/03 06:15:18;;;;;;;;;;;;;;;6.92;53.80;100993.38;4978723;28;6792;-73
2022/12/03 06:17:44;;;;;;;;;;;;;;;6.91;53.98;100995.06;4970953;28;6784;-73
2022/12/03 06:20:16;;;;;;;;;;;;;;;6.91;54.62;100992.50;4957982;28;8572;-73
2022/12/03 06:22:42;;;;;;;;;;;;;;;6.92;54.23;100985.72;4974952;28;6871;-74
2022/12/03 06:25:09;;;;;;;;;;;;;;;6.92;54.54;100990.81;4970469;28;9447;-74
2022/12/03 06:27:34;;;;;;;;;;;;;;;6.92;53.88;100990.81;4976438;28;6808;-74
2022/12/03 06:30:01;;;;;;;;;;;;;;;6.94;54.49;100992.72;4967621;28;6851;-74
2022/12/03 06:32:27;;;;;;;;;;;;;;;6.93;54.60;100984.94;4965067;28;7833;-73
2022/12/03 06:34:53;;;;;;;;;;;;;;;6.94;53.79;100984.16;4978273;28;6856;-74
2022/12/03 06:37:19;;;;;;;;;;;;;;;6.94;53.82;100979.06;4973373;28;6771;-73
2022/12/03 06:39:44;;;;;;;;;;;;;;;6.94;54.06;100981.63;4969042;28;6914;-74
2022/12/03 06:42:10;;;;;;;;;;;;;;;6.95;53.52;100983.38;4973756;28;6810;-73
2022/12/03 06:44:35;;;;;;;;;;;;;;;6.94;53.65;100979.06;4992714;28;6771;-74
2022/12/03 06:47:01;;;;;;;;;;;;;;;6.93;54.27;100979.84;4970078;28;6792;-74
2022/12/03 06:49:27;;;;;;;;;;;;;;;6.92;53.86;100973.88;4975574;28;6771;-74
2022/12/03 06:51:52;;;;;;;;;;;;;;;6.93;53.52;100972.22;4970479;28;6796;-74
2022/12/03 06:54:18;;;;;;;;;;;;;;;6.92;54.22;100980.63;4968977;28;6767;-72
2022/12/03 06:56:44;;;;;;;;;;;;;;;6.90;54.04;100972.00;4972454;28;6803;-74
2022/12/03 06:59:10;;;;;;;;;;;;;;;6.86;53.35;100970.88;4977733;28;6871;-74
2022/12/03 07:01:35;;;;;;;;;;;;;;;6.84;53.52;100969.00;4971237;28;7019;-74
2022/12/03 07:04:01;;;;;;;;;;;;;;;6.81;53.74;100972.25;4971399;28;8322;-74
2022/12/03 07:06:26;;;;;;;;;;;;;;;6.76;53.82;100969.34;4972052;28;8518;-73
2022/12/03 07:08:52;;;;;;;;;;;;;;;6.74;53.63;100967.47;4980507;28;6783;-74
2022/12/03 07:11:38;;;;;;;;;;;;;;;6.70;53.70;100973.09;4976176;28;6927;-73
2022/12/03 07:14:06;;;;;;;;;;;;;;;6.66;53.96;100977.06;4976294;28;6933;-74
2022/12/03 07:16:34;;;;;;;;;;;;;;;6.62;53.53;100975.09;4979494;28;6802;-74
2022/12/03 07:18:59;;;;;;;;;;;;;;;6.60;53.66;100971.56;4992353;28;6788;-75
2022/12/03 07:21:25;;;;;;;;;;;;;;;6.58;53.86;100968.88;4993019;28;8560;-73
2022/12/03 07:23:51;;;;;;;;;;;;;;;6.56;53.50;100972.97;4972378;28;6756;-74
2022/12/03 07:26:16;;;;;;;;;;;;;;;6.54;53.49;100969.44;4989665;28;6844;-73
2022/12/03 07:28:42;;;;;;;;;;;;;;;6.50;53.80;100965.78;4974208;28;6776;-75
2022/12/03 07:31:08;;;;;;;;;;;;;;;6.49;53.98;100971.66;4973343;28;6789;-73
2022/12/03 07:33:33;;;;;;;;;;;;;;;6.47;53.70;100968.13;4973983;28;6800;-74
2022/12/03 07:35:59;;;;;;;;;;;;;;;6.49;53.86;100974.19;4971290;28;8494;-72
2022/12/03 07:38:25;;;;;;;;;;;;;;;6.51;54.10;100975.19;4963878;28;6840;-74
2022/12/03 07:40:50;;;;;;;;;;;;;;;6.54;54.44;100972.00;4984892;28;9067;-74
2022/12/03 07:43:16;;;;;;;;;;;;;;;6.60;53.89;100981.75;4971746;28;6768;-74
2022/12/03 07:45:41;;;;;;;;;;;;;;;6.63;53.85;100979.41;4974675;28;6848;-74
2022/12/03 07:48:07;;;;;;;;;;;;;;;6.67;54.07;100984.84;4974629;28;7489;-73
2022/12/03 07:50:33;;;;;;;;;;;;;;;6.68;54.01;100985.75;4968299;28;7197;-74
2022/12/03 07:52:58;;;;;;;;;;;;;;;6.69;54.19;100982.41;4977314;28;6772;-72
2022/12/03 07:55:24;;;;;;;;;;;;;;;6.70;53.88;100989.28;4969892;28;7083;-73
2022/12/03 07:57:50;;;;;;;;;;;;;;;6.69;53.88;100984.97;4976169;28;6792;-73
2022/12/03 08:00:18;;;;;;;;;;;;;;;6.70;53.98;100983.28;4976279;28;6784;-72
2022/12/03 08:02:44;;;;;;;;;;;;;;;6.71;54.18;100991.03;4982767;28;6807;-72
2022/12/03 08:05:10;;;;;;;;;;;;;;;6.73;53.90;100983.53;4976637;28;6760;-74
2022/12/03 08:07:36;;;;;;;;;;;;;;;6.75;53.74;100985.38;4974152;28;6792;-74
2022/12/03 08:10:02;;;;;;;;;;;;;;;6.75;53.96;100982.84;4975208;28;6832;-74
2022/12/03 08:12:38;;;;;;;;;;;;;;;6.77;54.11;100985.50;4958949;28;9181;-73
2022/12/03 08:15:18;;;;;;;;;;;;;;;6.76;53.77;100983.75;4994161;28;6804;-73
2022/12/03 08:17:54;;;;;;;;;;;;;;;6.76;53.78;100988.84;4983785;28;6816;-73
2022/12/03 08:20:24;;;;;;;;;;;;;;;6.77;54.12;100991.50;4978937;28;6800;-74
2022/12/03 08:22:52;;;;;;;;;;;;;;;6.79;53.65;100989.94;4987370;28;6831;-74
2022/12/03 08:25:22;;;;;;;;;;;;;;;6.81;54.19;100988.38;4976884;28;6816;-74
2022/12/03 08:27:49;;;;;;;;;;;;;;;6.83;53.65;100987.63;4991651;28;6863;-75
2022/12/03 08:30:16;;;;;;;;;;;;;;;6.84;53.52;100987.72;4974417;28;6860;-72
2022/12/03 08:32:43;;;;;;;;;;;;;;;6.87;53.71;100992.19;4977960;28;6860;-74
2022/12/03 08:35:21;;;;;;;;;;;;;;;6.88;53.54;100988.84;4976212;28;6788;-73
2022/12/03 08:37:56;;;;;;;;;;;;;;;6.89;53.88;100990.63;4981717;28;6816;-73
2022/12/03 08:40:34;;;;;;;;;;;;;;;6.91;53.99;100995.06;4980573;28;6800;-73
2022/12/03 08:43:00;;;;;;;;;;;;;;;6.91;53.81;100994.16;4983349;28;6792;-74
2022/12/03 08:45:38;;;;;;;;;;;;;;;6.94;53.53;100994.38;4979802;28;6788;-75
2022/12/03 08:48:31;;;;;;;;;;;;;;;6.97;53.72;100989.50;4976740;28;7285;-74
2022/12/03 08:51:11;;;;;;;;;;;;;;;7.00;53.26;100992.28;4968243;28;7099;-74
2022/12/03 08:53:46;;;;;;;;;;;;;;;7.02;53.03;101000.03;4980841;28;6839;-74
2022/12/03 08:56:25;;;;;;;;;;;;;;;7.05;53.39;100993.50;4979036;28;6796;-74
2022/12/03 08:58:53;;;;;;;;;;;;;;;7.09;53.52;100995.47;4976475;28;6884;-73
2022/12/03 09:01:30;;;;;;;;;;;;;;;7.14;53.21;100987.25;4975844;28;8290;-74
2022/12/03 09:04:27;;;;;;;;;;;;;;;7.18;53.48;100989.28;4977171;28;7031;-73
2022/12/03 09:06:54;;;;;;;;;;;;;;;7.23;53.71;100993.00;4975010;28;7816;-74
2022/12/03 09:09:21;;;;;;;;;;;;;;;7.28;53.52;100990.78;4976414;28;6816;-74
2022/12/03 09:11:47;;;;;;;;;;;;;;;7.32;52.46;100988.56;4958488;28;7254;-75
2022/12/03 09:14:13;;;;;;;;;;;;;;;7.35;53.08;100980.25;4976575;28;7222;-73
2022/12/03 09:16:39;;;;;;;;;;;;;;;7.38;52.89;100982.13;4963912;28;8554;-75
2022/12/03 09:19:05;;;;;;;;;;;;;;;7.39;52.75;100981.34;4978131;28;8347;-74
2022/12/03 09:21:32;;;;;;;;;;;;;;;7.42;52.47;100986.66;4975705;28;6836;-73
2022/12/03 09:23:58;;;;;;;;;;;;;;;7.45;52.34;100985.22;4976530;28;6816;-72
2022/12/03 09:26:23;;;;;;;;;;;;;;;7.50;52.73;100991.53;4971250;28;7292;-74
2022/12/03 09:28:49;;;;;;;;;;;;;;;7.55;52.86;100991.88;4975659;28;6780;-73
2022/12/03 09:31:15;;;;;;;;;;;;;;;7.57;52.48;100985.19;4974963;28;6800;-75
2022/12/03 09:33:42;;;;;;;;;;;;;;;7.59;52.77;100988.72;4970776;28;7852;-73
2022/12/03 09:36:07;;;;;;;;;;;;;;;7.59;52.68;100990.41;4980201;28;8655;-73
2022/12/03 09:38:33;;;;;;;;;;;;;;;7.60;51.72;100994.75;4986296;28;8195;-74
2022/12/03 09:40:59;;;;;;;;;;;;;;;7.59;52.25;100986.19;4992152;28;6852;-74
2022/12/03 09:43:33;;;;;;;;;;;;;;;7.61;51.70;100987.16;4974141;28;7826;-73
2022/12/03 09:45:59;;;;;;;;;;;;;;;7.64;52.71;100984.84;4955475;28;7376;-74
2022/12/03 09:48:26;;;;;;;;;;;;;;;7.67;52.22;100988.38;4970442;28;6797;-74
2022/12/03 09:50:52;;;;;;;;;;;;;;;7.68;52.71;100979.94;4965054;28;6875;-74
2022/12/03 09:53:22;;;;;;;;;;;;;;;7.71;51.71;100975.03;4979421;28;8287;-74
2022/12/03 09:55:48;;;;;;;;;;;;;;;7.78;52.62;100974.69;4973803;28;6812;-74
2022/12/03 09:58:17;;;;;;;;;;;;;;;7.83;52.02;100975.91;4977513;28;6799;-73
2022/12/03 10:00:48;;;;;;;;;;;;;;;7.87;52.51;100966.78;4975969;28;6816;-74
2022/12/03 10:03:22;;;;;;;;;;;;;;;7.89;52.11;100965.22;4972108;28;8090;-73
2022/12/03 10:05:49;;;;;;;;;;;;;;;7.91;51.47;100966.22;4970329;28;7786;-74
2022/12/03 10:08:20;;;;;;;;;;;;;;;7.90;51.61;100959.34;4974242;28;7763;-71
2022/12/03 10:10:51;;;;;;;;;;;;;;;7.88;50.94;100960.91;4978357;28;9138;-73
2022/12/03 10:13:29;;;;;;;;;;;;;;;7.81;51.29;100954.47;4975521;28;8127;-74
2022/12/03 10:15:59;;;;;;;;;;;;;;;7.76;50.94;100951.63;4977741;28;8057;-74
2022/12/03 10:18:29;;;;;;;;;;;;;;;7.73;51.35;100948.00;4992785;28;6796;-74
2022/12/03 10:20:55;;;;;;;;;;;;;;;7.72;51.71;100954.75;4976835;28;6938;-73
2022/12/03 10:23:30;;;;;;;;;;;;;;;7.71;51.91;100947.88;4967348;28;7852;-72
2022/12/03 10:26:03;;;;;;;;;;;;;;;7.75;52.42;100949.84;4971225;28;6800;-74
2022/12/03 10:28:30;;;;;;;;;;;;;;;7.83;52.43;100941.84;4975348;28;7307;-73
2022/12/03 10:30:57;;;;;;;;;;;;;;;7.93;51.74;100941.66;4982216;28;6789;-73
2022/12/03 10:33:31;;;;;;;;;;;;;;;8.05;51.74;100939.94;4976778;28;6792;-75
2022/12/03 10:36:24;;;;;;;;;;;;;;;8.18;52.37;100928.00;4964653;28;6942;-72
2022/12/03 10:39:13;;;;;;;;;;;;;;;8.28;51.87;100925.28;4970954;28;7900;-74
2022/12/03 10:41:43;;;;;;;;;;;;;;;8.31;51.21;100922.91;4973725;28;7266;-73
2022/12/03 10:44:21;;;;;;;;;;;;;;;8.31;49.89;100924.59;4959115;28;8392;-74
2022/12/03 10:47:10;;;;;;;;;;;;;;;8.27;51.01;100915.84;4976064;28;7066;-75
2022/12/03 10:49:36;;;;;;;;;;;;;;;8.24;50.32;100914.75;4979257;28;8368;-73
2022/12/03 10:52:02;;;;;;;;;;;;;;;8.19;49.79;100907.66;4974687;28;6784;-74
2022/12/03 10:54:31;;;;;;;;;;;;;;;8.16;50.31;100909.13;4979243;28;6795;-74
2022/12/03 10:56:57;;;;;;;;;;;;;;;8.13;50.47;100899.63;4975260;28;6788;-75
2022/12/03 10:59:34;;;;;;;;;;;;;;;8.11;50.87;100903.75;4972380;28;6783;-75
2022/12/03 11:02:02;;;;;;;;;;;;;;;8.12;50.72;100905.50;4961563;28;7296;-74
2022/12/03 11:04:34;;;;;;;;;;;;;;;8.14;50.96;100901.38;4976048;28;7032;-75
2022/12/03 11:07:15;;;;;;;;;;;;;;;8.18;49.95;100895.69;4975168;28;6947;-74
2022/12/03 11:09:48;;;;;;;;;;;;;;;8.23;50.57;100892.56;4977800;28;6904;-75
2022/12/03 11:12:25;;;;;;;;;;;;;;;8.28;50.38;100886.06;4976525;28;6808;-74
2022/12/03 11:14:51;;;;;;;;;;;;;;;8.32;50.55;100888.03;4971090;28;6796;-75
2022/12/03 11:17:50;;;;;;;;;;;;;;;8.41;50.68;100880.97;4977500;28;6964;-74
2022/12/03 11:20:24;;;;;;;;;;;;;;;8.53;50.92;100882.59;4968645;28;7342;-72
2022/12/03 11:22:55;;;;;;;;;;;;;;;8.65;50.95;100883.34;4971852;28;7152;-74
2022/12/03 11:25:23;;;;;;;;;;;;;;;8.81;50.06;100880.09;4967523;28;6970;-73
2022/12/03 11:28:10;;;;;;;;;;;;;;;8.92;49.89;100870.53;4973132;28;7036;-73
2022/12/03 11:30:52;;;;;;;;;;;;;;;8.99;49.08;100875.25;4975334;28;6788;-74
2022/12/03 11:33:24;;;;;;;;;;;;;;;9.02;48.89;100866.88;4975774;28;6791;-74
2022/12/03 11:36:02;;;;;;;;;;;;;;;9.02;48.61;100860.09;4971447;28;6808;-73
2022/12/03 11:38:36;;;;;;;;;;;;;;;9.02;49.46;100854.97;4975993;28;6784;-74
2022/12/03 11:41:23;;;;;;;;;;;;;;;9.04;48.94;100855.09;4975163;28;6796;-75
2022/12/03 11:43:51;;;;;;;;;;;;;;;9.06;48.61;100855.16;4977161;28;8533;-74
2022/12/03 11:46:38;;;;;;;;;;;;;;;9.07;48.81;100851.81;4972035;28;8215;-73
2022/12/03 11:49:34;;;;;;;;;;;;;;;9.03;47.97;100841.41;4978190;28;7106;-73
2022/12/03 11:52:16;;;;;;;;;;;;;;;8.99;48.72;100839.47;4988310;28;6819;-73
2022/12/03 11:54:44;;;;;;;;;;;;;;;8.98;48.08;100842.81;4978935;28;6828;-74
2022/12/03 11:57:33;;;;;;;;;;;;;;;8.97;48.11;100840.16;4976555;28;6997;-75
2022/12/03 12:00:18;;;;;;;;;;;;;;;8.95;47.87;100832.38;4966562;28;8387;-74
2022/12/03 12:02:44;;;;;;;;;;;;;;;8.94;47.56;100828.06;4975545;28;11401;-73
2022/12/03 12:05:17;;;;;;;;;;;;;;;8.94;48.67;100829.75;4975705;28;6943;-73
2022/12/03 12:07:46;;;;;;;;;;;;;;;8.96;48.02;100828.16;4974072;28;6879;-74
2022/12/03 12:10:32;;;;;;;;;;;;;;;8.93;48.43;100823.72;4977113;28;6800;-74
2022/12/03 12:12:58;;;;;;;;;;;;;;;8.99;48.14;100828.34;4974612;28;6820;-74
2022/12/03 12:15:53;;;;;;;;;;;;;;;9.02;47.88;100820.84;4997290;28;6860;-73
2022/12/03 12:18:41;;;;;;;;;;;;;;;9.06;47.97;100821.91;4978922;28;6792;-73
2022/12/03 12:21:43;;;;;;;;;;;;;;;9.01;47.25;100812.31;4992946;28;7110;-74
2022/12/03 12:24:45;;;;;;;;;;;;;;;8.93;47.54;100810.97;4984011;28;7270;-74
2022/12/03 12:27:32;;;;;;;;;;;;;;;8.89;47.43;100811.56;4976244;28;6820;-74
2022/12/03 12:30:03;;;;;;;;;;;;;;;8.87;48.66;100803.78;4983766;28;7901;-73
2022/12/03 12:32:38;;;;;;;;;;;;;;;8.89;47.79;100798.78;4974465;28;6812;-73
2022/12/03 12:35:31;;;;;;;;;;;;;;;8.91;47.59;100799.75;4994814;28;8573;-74
2022/12/03 12:38:07;;;;;;;;;;;;;;;8.92;48.08;100798.97;4973831;28;6823;-73
2022/12/03 12:40:36;;;;;;;;;;;;;;;8.91;47.99;100799.75;4976604;28;6780;-74
2022/12/03 12:43:18;;;;;;;;;;;;;;;8.90;48.62;100798.00;4972237;28;6943;-73
2022/12/03 12:45:44;;;;;;;;;;;;;;;8.88;48.25;100794.44;4973132;28;7342;-75
2022/12/03 12:48:25;;;;;;;;;;;;;;;8.83;48.31;100790.72;4974295;28;6800;-74
2022/12/03 12:51:00;;;;;;;;;;;;;;;8.74;48.65;100788.50;4972609;28;6808;-72
2022/12/03 12:53:33;;;;;;;;;;;;;;;8.68;47.73;100793.22;4975276;28;6820;-72
2022/12/03 12:56:30;;;;;;;;;;;;;;;8.64;48.46;100791.25;4975726;28;6800;-73
2022/12/03 12:59:22;;;;;;;;;;;;;;;8.57;48.00;100788.34;4980945;28;7214;-74
2022/12/03 13:02:25;;;;;;;;;;;;;;;8.54;47.91;100782.16;4950552;28;7062;-74
2022/12/03 13:04:51;;;;;;;;;;;;;;;8.50;47.83;100785.25;4977402;28;6788;-74
2022/12/03 13:07:17;;;;;;;;;;;;;;;8.45;47.70;100782.41;4974665;28;6999;-74
2022/12/03 13:09:42;;;;;;;;;;;;;;;8.40;48.45;100778.69;4979148;28;6784;-73
2022/12/03 13:12:21;;;;;;;;;;;;;;;8.36;49.31;100772.50;4976031;28;7094;-74
2022/12/03 13:14:48;;;;;;;;;;;;;;;8.34;48.42;100771.53;4974592;28;6789;-75
2022/12/03 13:17:18;;;;;;;;;;;;;;;8.31;49.20;100763.69;4972806;28;6941;-75
2022/12/03 13:19:44;;;;;;;;;;;;;;;8.30;48.59;100774.66;4994028;28;6823;-74
2022/12/03 13:22:21;;;;;;;;;;;;;;;8.28;48.59;100768.59;4976084;28;6983;-74
2022/12/03 13:24:54;;;;;;;;;;;;;;;8.25;48.90;100769.25;4996458;28;9281;-74
2022/12/03 13:27:28;;;;;;;;;;;;;;;8.23;48.09;100759.75;4974825;28;6792;-74
2022/12/03 13:30:12;;;;;;;;;;;;;;;8.18;48.92;100764.59;4974045;28;6819;-73